createdAt,value
2023-04-10T00:01:10.654Z,9.74
2023-04-10T00:03:38.014Z,9.68
2023-04-10T00:06:07.366Z,9.87
2023-04-10T00:08:34.551Z,9.88
2023-04-10T00:11:01.674Z,9.89
2023-04-10T00:13:29.791Z,9.72
2023-04-10T00:15:58.011Z,9.68
2023-04-10T00:18:25.247Z,9.93
2023-04-10T00:20:52.464Z,9.88
2023-04-10T00:23:19.615Z,9.64
2023-04-10T00:25:48.922Z,9.56
2023-04-10T00:28:17.195Z,9.46
2023-04-10T00:30:44.430Z,9.44
2023-04-10T00:33:11.667Z,9.40
2023-04-10T00:35:38.959Z,9.34
2023-04-10T00:38:06.111Z,9.33
2023-04-10T00:40:33.336Z,9.29
2023-04-10T00:43:01.137Z,9.27
2023-04-10T00:45:28.381Z,9.14
2023-04-10T00:47:56.092Z,9.07
2023-04-10T00:50:24.185Z,8.89
2023-04-10T00:52:51.726Z,8.91
2023-04-10T00:55:19.137Z,9.00
2023-04-10T00:57:47.815Z,8.91
2023-04-10T01:00:17.363Z,8.88
2023-04-10T01:02:44.738Z,8.74
2023-04-10T01:05:13.508Z,8.76
2023-04-10T01:08:26.784Z,8.86
2023-04-10T01:11:12.925Z,8.90
2023-04-10T01:13:59.375Z,9.03
2023-04-10T01:16:39.107Z,9.05
2023-04-10T01:19:37.475Z,8.89
2023-04-10T01:22:10.509Z,8.85
2023-04-10T01:25:45.504Z,8.89
2023-04-10T01:28:52.821Z,8.74
2023-04-10T01:31:53.416Z,8.71
2023-04-10T01:34:35.924Z,8.67
2023-04-10T01:37:09.095Z,8.68
2023-04-10T01:39:41.872Z,8.54
2023-04-10T01:42:14.530Z,8.43
2023-04-10T01:44:45.996Z,8.38
2023-04-10T01:47:18.880Z,8.42
2023-04-10T01:49:49.036Z,8.39
2023-04-10T01:52:17.917Z,8.32
2023-04-10T01:54:51.217Z,8.34
2023-04-10T01:57:25.205Z,8.23
2023-04-10T01:59:55.900Z,8.21
2023-04-10T02:02:23.661Z,8.27
2023-04-10T02:04:51.807Z,8.26
2023-04-10T02:08:02.151Z,8.23
2023-04-10T02:10:45.224Z,8.23
2023-04-10T02:13:16.196Z,8.19
2023-04-10T02:15:46.738Z,8.18
2023-04-10T02:18:18.371Z,8.13
2023-04-10T02:20:46.242Z,8.12
2023-04-10T02:23:17.080Z,7.99
2023-04-10T02:25:44.247Z,7.94
2023-04-10T02:28:11.622Z,7.91
2023-04-10T02:30:39.322Z,7.77
2023-04-10T02:33:07.039Z,7.65
2023-04-10T02:35:34.894Z,7.71
2023-04-10T02:38:03.858Z,7.80
2023-04-10T02:40:33.807Z,7.74
2023-04-10T02:43:13.523Z,7.59
2023-04-10T02:45:41.880Z,7.54
2023-04-10T02:48:11.195Z,7.58
2023-04-10T02:50:38.507Z,7.53
2023-04-10T02:53:05.683Z,7.45
2023-04-10T02:55:32.998Z,7.41
2023-04-10T02:58:00.207Z,7.41
2023-04-10T03:00:27.557Z,7.40
2023-04-10T03:03:10.370Z,7.43
2023-04-10T03:05:49.340Z,7.38
2023-04-10T03:08:19.019Z,7.33
2023-04-10T03:10:51.040Z,7.32
2023-04-10T03:13:18.441Z,7.37
2023-04-10T03:15:45.727Z,7.41
2023-04-10T03:18:13.134Z,7.48
2023-04-10T03:20:44.957Z,7.51
2023-04-10T03:23:12.540Z,7.44
2023-04-10T03:25:39.744Z,7.45
2023-04-10T03:28:08.175Z,7.40
2023-04-10T03:30:37.032Z,7.42
2023-04-10T03:33:04.544Z,7.36
2023-04-10T03:35:31.830Z,7.37
2023-04-10T03:38:00.246Z,7.37
2023-04-10T03:40:27.491Z,7.41
2023-04-10T03:42:55.095Z,7.48
2023-04-10T03:45:22.356Z,7.54
2023-04-10T03:47:49.697Z,7.57
2023-04-10T03:50:17.013Z,7.59
2023-04-10T03:53:02.037Z,7.56
2023-04-10T03:55:30.805Z,7.60
2023-04-10T03:57:58.380Z,7.61
2023-04-10T04:00:27.435Z,7.64
2023-04-10T04:03:04.947Z,7.52
2023-04-10T04:05:53.909Z,7.42
2023-04-10T04:08:39.401Z,7.38
2023-04-10T04:11:17.822Z,7.29
2023-04-10T04:14:05.220Z,7.26
2023-04-10T04:16:51.164Z,7.35
2023-04-10T04:19:27.278Z,7.35
2023-04-10T04:22:13.520Z,7.40
2023-04-10T04:25:08.845Z,7.32
2023-04-10T04:28:16.025Z,7.28
2023-04-10T04:31:03.468Z,7.26
2023-04-10T04:33:50.233Z,7.28
2023-04-10T04:36:35.979Z,7.29
2023-04-10T04:39:23.384Z,7.34
2023-04-10T04:42:03.320Z,7.24
2023-04-10T04:44:50.240Z,7.24
2023-04-10T04:47:52.708Z,7.26
2023-04-10T04:50:31.081Z,7.34
2023-04-10T04:53:27.504Z,7.46
2023-04-10T04:56:23.998Z,7.48
2023-04-10T04:59:09.724Z,7.47
2023-04-10T05:01:55.888Z,7.44
2023-04-10T05:04:45.681Z,7.43
2023-04-10T05:07:29.507Z,7.44
2023-04-10T05:10:12.547Z,7.36
2023-04-10T05:12:58.269Z,7.34
2023-04-10T05:15:36.009Z,7.42
2023-04-10T05:18:29.413Z,7.36
2023-04-10T05:20:56.675Z,7.39
2023-04-10T05:23:41.211Z,7.37
2023-04-10T05:26:34.653Z,7.30
2023-04-10T05:29:20.389Z,7.33
2023-04-10T05:32:06.299Z,7.31
2023-04-10T05:34:52.080Z,7.35
2023-04-10T05:37:33.036Z,7.43
2023-04-10T05:40:21.133Z,7.46
2023-04-10T05:43:11.183Z,7.50
2023-04-10T05:45:58.546Z,7.56
2023-04-10T05:48:44.245Z,7.69
2023-04-10T05:51:36.831Z,7.91
2023-04-10T05:54:19.447Z,8.21
2023-04-10T05:56:49.869Z,8.19
2023-04-10T05:59:36.015Z,8.27
2023-04-10T06:02:24.626Z,8.23
2023-04-10T06:04:52.261Z,8.35
2023-04-10T06:07:20.238Z,8.47
2023-04-10T06:09:47.369Z,8.53
2023-04-10T06:12:14.637Z,8.58
2023-04-10T06:14:42.148Z,8.74
2023-04-10T06:17:11.877Z,8.89
2023-04-10T06:19:39.220Z,8.96
2023-04-10T06:22:06.387Z,8.95
2023-04-10T06:24:33.553Z,9.09
2023-04-10T06:27:01.078Z,9.46
2023-04-10T06:29:28.543Z,9.36
2023-04-10T06:31:55.702Z,9.60
2023-04-10T06:34:22.895Z,9.92
2023-04-10T06:36:58.082Z,9.94
2023-04-10T06:39:25.997Z,10.05
2023-04-10T06:41:53.356Z,10.18
2023-04-10T06:44:41.831Z,10.28
2023-04-10T06:47:09.349Z,10.65
2023-04-10T06:49:36.684Z,10.70
2023-04-10T06:52:04.043Z,10.61
2023-04-10T06:54:31.380Z,10.88
2023-04-10T06:56:58.956Z,10.99
2023-04-10T06:59:26.620Z,11.26
2023-04-10T07:01:53.780Z,11.32
2023-04-10T07:04:21.140Z,11.20
2023-04-10T07:06:48.259Z,11.37
2023-04-10T07:09:15.431Z,11.51
2023-04-10T07:11:42.760Z,11.18
2023-04-10T07:14:10.076Z,11.84
2023-04-10T07:16:37.580Z,11.70
2023-04-10T07:19:05.095Z,12.09
2023-04-10T07:21:32.980Z,12.00
2023-04-10T07:24:00.310Z,11.72
2023-04-10T07:26:27.660Z,11.87
2023-04-10T07:28:55.153Z,11.81
2023-04-10T07:31:22.627Z,11.72
2023-04-10T07:33:50.038Z,11.76
2023-04-10T07:36:17.478Z,11.57
2023-04-10T07:38:44.684Z,11.47
2023-04-10T07:41:12.212Z,10.68
2023-04-10T07:43:39.530Z,10.77
2023-04-10T07:46:07.215Z,11.21
2023-04-10T07:48:34.643Z,10.68
2023-04-10T07:51:02.682Z,10.78
2023-04-10T07:53:29.901Z,11.17
2023-04-10T07:55:57.269Z,11.04
2023-04-10T07:58:24.418Z,11.10
2023-04-10T08:00:52.121Z,11.08
2023-04-10T08:03:19.543Z,11.38
2023-04-10T08:05:46.915Z,11.06
2023-04-10T08:08:16.401Z,11.42
2023-04-10T08:10:43.578Z,11.46
2023-04-10T08:13:10.722Z,11.34
2023-04-10T08:15:37.981Z,11.70
2023-04-10T08:18:05.587Z,11.33
2023-04-10T08:20:36.831Z,11.52
2023-04-10T08:23:17.358Z,11.88
2023-04-10T08:25:47.824Z,12.27
2023-04-10T08:28:15.311Z,12.21
2023-04-10T08:30:42.513Z,11.87
2023-04-10T08:33:16.213Z,11.90
2023-04-10T08:35:47.552Z,11.97
2023-04-10T08:38:14.946Z,11.97
2023-04-10T08:40:42.739Z,12.33
2023-04-10T08:43:09.968Z,12.47
2023-04-10T08:45:37.302Z,12.67
2023-04-10T08:48:08.064Z,12.48
2023-04-10T08:50:38.602Z,12.64
2023-04-10T08:53:13.478Z,12.41
2023-04-10T08:55:42.322Z,12.38
2023-04-10T08:58:11.294Z,11.92
2023-04-10T09:00:39.530Z,11.72
2023-04-10T09:03:11.916Z,11.58
2023-04-10T09:05:39.229Z,11.61
2023-04-10T09:08:09.782Z,12.03
2023-04-10T09:10:37.192Z,12.15
2023-04-10T09:13:04.374Z,12.26
2023-04-10T09:15:33.213Z,12.12
2023-04-10T09:18:03.717Z,12.10
2023-04-10T09:20:32.343Z,12.08
2023-04-10T09:22:59.491Z,12.69
2023-04-10T09:25:41.048Z,12.78
2023-04-10T09:28:10.080Z,12.44
2023-04-10T09:30:42.916Z,12.28
2023-04-10T09:33:27.915Z,12.77
2023-04-10T09:36:00.882Z,13.25
2023-04-10T09:38:28.935Z,13.36
2023-04-10T09:41:08.462Z,13.08
2023-04-10T09:43:36.447Z,13.25
2023-04-10T09:46:04.071Z,13.23
2023-04-10T09:48:31.601Z,13.20
2023-04-10T09:50:59.034Z,13.29
2023-04-10T09:53:26.430Z,13.51
2023-04-10T09:55:54.693Z,13.59
2023-04-10T09:58:24.067Z,13.44
2023-04-10T10:00:52.176Z,13.21
2023-04-10T10:03:22.847Z,13.56
2023-04-10T10:05:51.921Z,13.95
2023-04-10T10:08:19.864Z,13.56
2023-04-10T10:10:54.780Z,12.91
2023-04-10T10:13:38.951Z,13.48
2023-04-10T10:16:26.950Z,13.55
2023-04-10T10:19:21.038Z,13.56
2023-04-10T10:21:48.800Z,14.15
2023-04-10T10:24:17.289Z,14.84
2023-04-10T10:26:47.301Z,13.68
2023-04-10T10:29:18.442Z,14.13
2023-04-10T10:31:47.823Z,13.77
2023-04-10T10:34:16.882Z,14.42
2023-04-10T10:36:44.058Z,14.83
2023-04-10T10:39:54.352Z,13.89
2023-04-10T10:43:25.993Z,13.63
2023-04-10T10:46:07.661Z,13.83
2023-04-10T10:48:35.086Z,13.31
2023-04-10T10:51:03.659Z,13.42
2023-04-10T10:53:49.192Z,13.21
2023-04-10T10:56:18.968Z,13.77
2023-04-10T10:58:57.397Z,13.86
2023-04-10T11:01:24.884Z,14.47
2023-04-10T11:03:52.278Z,15.11
2023-04-10T11:06:52.197Z,18.59
2023-04-10T11:09:51.349Z,19.50
2023-04-10T11:12:25.329Z,20.43
2023-04-10T11:15:03.028Z,23.05
2023-04-10T11:17:54.341Z,22.17
2023-04-10T11:20:25.713Z,23.46
2023-04-10T11:23:13.229Z,17.53
2023-04-10T11:25:52.885Z,20.08
2023-04-10T11:28:39.617Z,24.17
2023-04-10T11:31:26.101Z,23.80
2023-04-10T11:33:57.503Z,24.54
2023-04-10T11:36:25.278Z,25.26
2023-04-10T11:39:00.815Z,25.23
2023-04-10T11:41:37.334Z,24.33
2023-04-10T11:44:08.752Z,24.66
2023-04-10T11:46:42.439Z,24.61
2023-04-10T11:49:11.353Z,21.97
2023-04-10T11:51:40.682Z,21.05
2023-04-10T11:54:17.514Z,19.39
2023-04-10T11:57:02.574Z,18.37
2023-04-10T11:59:32.865Z,19.24
2023-04-10T12:02:15.275Z,17.03
2023-04-10T12:04:44.689Z,17.33
2023-04-10T12:07:12.215Z,17.42
2023-04-10T12:09:39.682Z,17.94
2023-04-10T12:12:08.410Z,18.05
2023-04-10T12:14:42.748Z,17.84
2023-04-10T12:17:12.943Z,17.95
2023-04-10T12:19:40.938Z,17.24
2023-04-10T12:22:08.488Z,17.32
2023-04-10T12:24:51.419Z,16.43
2023-04-10T12:27:26.681Z,16.68
2023-04-10T12:29:57.852Z,17.30
2023-04-10T12:32:27.622Z,16.80
2023-04-10T12:34:58.376Z,17.81
2023-04-10T12:37:49.409Z,18.09
2023-04-10T12:40:17.214Z,17.38
2023-04-10T12:42:44.776Z,17.54
2023-04-10T12:45:14.074Z,18.11
2023-04-10T12:47:53.953Z,17.43
2023-04-10T12:50:21.280Z,17.99
2023-04-10T12:53:11.890Z,17.99
2023-04-10T12:55:40.228Z,18.14
2023-04-10T12:58:20.597Z,18.21
2023-04-10T13:00:49.163Z,18.24
2023-04-10T13:03:16.530Z,16.91
2023-04-10T13:05:44.755Z,16.87
2023-04-10T13:08:12.034Z,17.57
2023-04-10T13:10:40.521Z,17.73
2023-04-10T13:13:08.060Z,17.98
2023-04-10T13:15:35.390Z,17.78
2023-04-10T13:18:05.235Z,18.54
2023-04-10T13:20:36.203Z,17.75
2023-04-10T13:23:03.945Z,17.46
2023-04-10T13:25:34.771Z,17.81
2023-04-10T13:28:02.232Z,18.40
2023-04-10T13:30:29.557Z,17.21
2023-04-10T13:32:56.852Z,17.80
2023-04-10T13:35:24.196Z,18.34
2023-04-10T13:37:54.044Z,18.66
2023-04-10T13:40:21.700Z,18.90
2023-04-10T13:42:49.279Z,19.44
2023-04-10T13:45:16.718Z,18.89
2023-04-10T13:47:44.093Z,17.46
2023-04-10T13:50:11.776Z,17.12
2023-04-10T13:52:39.121Z,19.98
2023-04-10T13:55:07.707Z,23.59
2023-04-10T13:57:34.973Z,23.31
2023-04-10T14:00:02.170Z,24.96
2023-04-10T14:02:39.994Z,25.87
2023-04-10T14:05:08.978Z,26.93
2023-04-10T14:07:36.155Z,25.26
2023-04-10T14:10:04.044Z,23.14
2023-04-10T14:12:31.184Z,24.99
2023-04-10T14:14:59.244Z,21.23
2023-04-10T14:17:26.815Z,19.04
2023-04-10T14:19:54.266Z,19.39
2023-04-10T14:22:21.702Z,23.37
2023-04-10T14:24:49.938Z,20.68
2023-04-10T14:27:18.513Z,18.71
2023-04-10T14:29:54.261Z,18.91
2023-04-10T14:32:22.413Z,22.85
2023-04-10T14:34:49.734Z,24.24
2023-04-10T14:37:18.944Z,23.79
2023-04-10T14:39:46.211Z,22.98
2023-04-10T14:42:13.465Z,23.86
2023-04-10T14:44:40.966Z,22.40
2023-04-10T14:47:08.411Z,23.94
2023-04-10T14:49:35.835Z,24.42
2023-04-10T14:52:03.361Z,22.73
2023-04-10T14:54:30.604Z,24.10
2023-04-10T14:56:58.528Z,24.16
2023-04-10T14:59:25.766Z,24.16
2023-04-10T15:01:53.957Z,21.12
2023-04-10T15:04:21.508Z,17.37
2023-04-10T15:06:48.924Z,17.54
2023-04-10T15:09:16.429Z,17.58
2023-04-10T15:11:43.836Z,17.67
2023-04-10T15:14:12.031Z,18.71
2023-04-10T15:16:39.312Z,19.75
2023-04-10T15:19:06.504Z,20.13
2023-04-10T15:21:34.196Z,20.30
2023-04-10T15:24:01.470Z,22.47
2023-04-10T15:26:28.615Z,22.93
2023-04-10T15:28:56.127Z,23.04
2023-04-10T15:31:24.017Z,21.98
2023-04-10T15:33:54.306Z,19.69
2023-04-10T15:36:21.778Z,21.48
2023-04-10T15:38:50.341Z,21.29
2023-04-10T15:41:17.689Z,18.77
2023-04-10T15:43:44.864Z,19.12
2023-04-10T15:46:12.466Z,19.44
2023-04-10T15:48:39.941Z,18.32
2023-04-10T15:51:08.008Z,18.78
2023-04-10T15:53:35.721Z,19.46
2023-04-10T15:56:06.931Z,18.40
2023-04-10T15:58:34.491Z,19.15
2023-04-10T16:01:02.499Z,18.54
2023-04-10T16:03:30.463Z,18.29
2023-04-10T16:05:58.359Z,17.90
2023-04-10T16:08:26.334Z,16.80
2023-04-10T16:10:54.195Z,17.22
2023-04-10T16:13:21.470Z,17.07
2023-04-10T16:15:50.093Z,16.43
2023-04-10T16:18:17.333Z,17.06
2023-04-10T16:20:44.587Z,17.91
2023-04-10T16:23:11.837Z,17.19
2023-04-10T16:25:39.065Z,17.26
2023-04-10T16:28:08.023Z,16.96
2023-04-10T16:30:36.403Z,16.61
2023-04-10T16:33:04.220Z,16.70
2023-04-10T16:35:31.956Z,17.01
2023-04-10T16:37:59.382Z,17.01
2023-04-10T16:40:32.738Z,16.43
2023-04-10T16:43:01.738Z,16.82
2023-04-10T16:45:29.314Z,16.67
2023-04-10T16:47:56.703Z,16.53
2023-04-10T16:50:24.387Z,16.80
2023-04-10T16:52:51.709Z,16.53
2023-04-10T16:55:19.329Z,16.08
2023-04-10T16:57:46.736Z,16.16
2023-04-10T17:00:14.669Z,16.14
2023-04-10T17:02:42.885Z,16.15
2023-04-10T17:05:11.266Z,16.12
2023-04-10T17:07:38.491Z,16.08
2023-04-10T17:10:06.447Z,16.04
2023-04-10T17:12:33.864Z,15.88
2023-04-10T17:15:01.193Z,15.83
2023-04-10T17:17:28.554Z,15.87
2023-04-10T17:19:55.971Z,15.89
2023-04-10T17:22:23.337Z,15.71
2023-04-10T17:24:50.675Z,15.71
2023-04-10T17:27:17.902Z,15.75
2023-04-10T17:29:45.179Z,15.70
2023-04-10T17:32:12.378Z,15.61
2023-04-10T17:34:39.568Z,15.43
2023-04-10T17:37:06.798Z,15.37
2023-04-10T17:39:34.026Z,15.38
2023-04-10T17:42:01.468Z,15.25
2023-04-10T17:44:28.742Z,15.12
2023-04-10T17:46:56.629Z,15.06
2023-04-10T17:49:25.410Z,14.98
2023-04-10T17:51:52.818Z,14.93
2023-04-10T17:54:20.180Z,14.87
2023-04-10T17:56:47.431Z,14.82
2023-04-10T17:59:14.658Z,14.75
2023-04-10T18:01:41.977Z,14.68
2023-04-10T18:04:09.242Z,14.62
2023-04-10T18:06:36.444Z,14.54
2023-04-10T18:09:03.791Z,14.41
2023-04-10T18:11:30.991Z,14.31
2023-04-10T18:13:58.219Z,14.16
2023-04-10T18:16:25.787Z,14.05
2023-04-10T18:18:53.278Z,13.96
2023-04-10T18:21:21.179Z,13.91
2023-04-10T18:23:48.340Z,13.90
2023-04-10T18:26:15.810Z,13.88
2023-04-10T18:28:43.507Z,13.78
2023-04-10T18:31:12.569Z,13.76
2023-04-10T18:33:40.038Z,13.67
2023-04-10T18:36:08.177Z,13.60
2023-04-10T18:38:35.461Z,13.53
2023-04-10T18:41:02.613Z,13.51
2023-04-10T18:43:29.882Z,13.45
2023-04-10T18:45:57.389Z,13.42
2023-04-10T18:48:24.639Z,13.40
2023-04-10T18:50:54.873Z,13.36
2023-04-10T18:53:22.409Z,13.31
2023-04-10T18:55:53.665Z,13.28
2023-04-10T18:58:22.190Z,13.26
2023-04-10T19:00:49.887Z,13.16
2023-04-10T19:03:18.318Z,13.10
2023-04-10T19:05:45.831Z,13.04
2023-04-10T19:08:14.422Z,13.04
2023-04-10T19:10:42.807Z,13.00
2023-04-10T19:13:12.398Z,12.96
2023-04-10T19:15:47.080Z,12.92
2023-04-10T19:18:15.870Z,12.86
2023-04-10T19:20:49.912Z,12.82
2023-04-10T19:23:18.755Z,12.79
2023-04-10T19:25:46.090Z,12.75
2023-04-10T19:28:13.223Z,12.67
2023-04-10T19:30:40.598Z,12.65
2023-04-10T19:33:07.744Z,12.59
2023-04-10T19:35:35.004Z,12.53
2023-04-10T19:38:02.232Z,12.42
2023-04-10T19:40:31.532Z,12.34
2023-04-10T19:43:00.307Z,12.28
2023-04-10T19:45:29.021Z,12.23
2023-04-10T19:47:56.871Z,12.16
2023-04-10T19:50:24.569Z,12.12
2023-04-10T19:52:52.496Z,12.06
2023-04-10T19:55:19.909Z,12.01
2023-04-10T19:57:47.943Z,11.94
2023-04-10T20:00:15.433Z,11.88
2023-04-10T20:02:43.030Z,11.82
2023-04-10T20:05:10.697Z,11.78
2023-04-10T20:07:37.931Z,11.78
2023-04-10T20:10:06.119Z,11.79
2023-04-10T20:12:33.406Z,11.78
2023-04-10T20:15:03.530Z,11.78
2023-04-10T20:17:31.407Z,11.76
2023-04-10T20:19:58.685Z,11.75
2023-04-10T20:22:25.933Z,11.74
2023-04-10T20:24:53.080Z,11.69
2023-04-10T20:27:20.317Z,11.65
2023-04-10T20:29:47.442Z,11.64
2023-04-10T20:32:14.608Z,11.61
2023-04-10T20:34:41.750Z,11.69
2023-04-10T20:37:08.940Z,11.70
2023-04-10T20:39:37.741Z,11.70
2023-04-10T20:42:06.482Z,11.70
2023-04-10T20:44:37.858Z,11.69
2023-04-10T20:47:08.205Z,11.65
2023-04-10T20:49:37.508Z,11.63
2023-04-10T20:52:06.218Z,11.66
2023-04-10T20:54:33.834Z,11.69
2023-04-10T20:57:01.804Z,11.67
2023-04-10T20:59:33.327Z,11.66
2023-04-10T21:02:00.901Z,11.68
2023-04-10T21:04:28.341Z,11.67
2023-04-10T21:06:55.612Z,11.69
2023-04-10T21:09:22.749Z,11.72
2023-04-10T21:11:49.936Z,11.69
2023-04-10T21:14:17.105Z,11.69
2023-04-10T21:16:45.771Z,11.69
2023-04-10T21:19:13.380Z,11.68
2023-04-10T21:21:40.652Z,11.68
2023-04-10T21:24:07.874Z,11.68
2023-04-10T21:26:35.140Z,11.68
2023-04-10T21:29:02.450Z,11.67
2023-04-10T21:31:29.616Z,11.65
2023-04-10T21:33:56.778Z,11.61
2023-04-10T21:36:23.946Z,11.55
2023-04-10T21:38:51.064Z,11.53
2023-04-10T21:41:18.424Z,11.48
2023-04-10T21:43:45.640Z,11.49
2023-04-10T21:46:12.807Z,11.55
2023-04-10T21:48:41.474Z,11.51
2023-04-10T21:51:08.664Z,11.44
2023-04-10T21:53:35.788Z,11.33
2023-04-10T21:56:02.920Z,11.23
2023-04-10T21:58:31.632Z,11.19
2023-04-10T22:00:58.829Z,11.21
2023-04-10T22:03:27.214Z,11.21
2023-04-10T22:05:54.511Z,11.22
2023-04-10T22:08:22.021Z,11.22
2023-04-10T22:10:49.256Z,11.24
2023-04-10T22:13:29.685Z,11.29
2023-04-10T22:15:59.608Z,11.27
2023-04-10T22:18:26.772Z,11.22
2023-04-10T22:20:53.937Z,11.27
2023-04-10T22:23:21.087Z,11.30
2023-04-10T22:25:48.217Z,11.31
2023-04-10T22:28:15.439Z,11.32
2023-04-10T22:30:42.581Z,11.36
2023-04-10T22:33:11.905Z,11.38
2023-04-10T22:35:39.067Z,11.35
2023-04-10T22:38:07.660Z,11.29
2023-04-10T22:40:34.955Z,11.21
2023-04-10T22:43:02.238Z,11.21
2023-04-10T22:45:29.418Z,11.15
2023-04-10T22:47:56.699Z,11.16
2023-04-10T22:50:23.896Z,11.14
2023-04-10T22:52:51.184Z,11.11
2023-04-10T22:55:18.563Z,11.13
2023-04-10T22:57:49.402Z,11.16
2023-04-10T23:00:17.090Z,11.13
2023-04-10T23:02:44.420Z,11.09
2023-04-10T23:05:11.602Z,11.05
2023-04-10T23:07:38.844Z,11.06
2023-04-10T23:10:07.425Z,11.08
2023-04-10T23:12:34.541Z,11.06
2023-04-10T23:15:01.685Z,11.01
2023-04-10T23:17:28.902Z,11.04
2023-04-10T23:19:56.104Z,10.99
2023-04-10T23:22:23.391Z,10.93
2023-04-10T23:24:57.744Z,10.95
2023-04-10T23:27:25.073Z,10.94
2023-04-10T23:29:52.356Z,10.96
2023-04-10T23:32:19.531Z,10.98
2023-04-10T23:34:46.679Z,10.96
2023-04-10T23:37:13.815Z,10.92
2023-04-10T23:39:40.993Z,10.95
2023-04-10T23:42:08.284Z,10.97
2023-04-10T23:44:35.736Z,10.94
2023-04-10T23:47:03.159Z,10.95
2023-04-10T23:49:30.572Z,10.97
2023-04-10T23:51:57.804Z,10.95
2023-04-10T23:54:25.146Z,10.99
2023-04-10T23:56:52.332Z,11.02
2023-04-10T23:59:19.951Z,11.01
